Time;durP1;ratioP1;P1;durP2;ratioP2;P2;SDS_P1;SDS_P2;PMS_P1;PMS_P2;Temp;Humidity;BMP_temperature;BMP_pressure;BME280_temperature;BME280_humidity;BME280_pressure;Samples;Min_cycle;Max_cycle;Signal;HPM_P1;HPM_P2
2021/03/17 00:00:18;;;;;;;;;;;18.20;53.70;;;;;;5072324;28;19924;-60
2021/03/17 00:02:44;;;;;;;;;;;18.20;53.70;;;;;;5071221;28;19925;-60
2021/03/17 00:05:10;;;;;;;;;;;18.20;53.70;;;;;;5072054;28;19928;-61
2021/03/17 00:07:35;;;;;;;;;;;18.20;53.80;;;;;;5072250;28;19925;-60
2021/03/17 00:10:01;;;;;;;;;;;18.20;53.80;;;;;;5070855;28;20386;-60
2021/03/17 00:12:27;;;;;;;;;;;18.10;53.80;;;;;;5072063;28;19924;-61
2021/03/17 00:14:52;;;;;;;;;;;18.10;53.90;;;;;;5071588;28;19936;-60
2021/03/17 00:17:18;;;;;;;;;;;18.10;53.90;;;;;;5071761;28;20368;-60
2021/03/17 00:19:43;;;;;;;;;;;18.10;53.90;;;;;;5075812;28;19947;-60
2021/03/17 00:22:09;;;;;;;;;;;18.10;54.00;;;;;;5074860;28;19935;-60
2021/03/17 00:24:35;;;;;;;;;;;18.00;53.90;;;;;;5075745;28;19925;-60
2021/03/17 00:27:01;;;;;;;;;;;18.00;54.00;;;;;;5075160;28;19952;-60
2021/03/17 00:29:26;;;;;;;;;;;18.00;54.00;;;;;;5074510;28;19938;-61
2021/03/17 00:31:52;;;;;;;;;;;18.00;54.00;;;;;;5074775;28;19928;-60
2021/03/17 00:34:17;;;;;;;;;;;17.90;54.00;;;;;;5075773;28;19939;-60
2021/03/17 00:36:43;;;;;;;;;;;17.90;54.10;;;;;;5074527;28;19928;-60
2021/03/17 00:39:09;;;;;;;;;;;17.90;54.20;;;;;;5075092;28;20750;-60
2021/03/17 00:41:35;;;;;;;;;;;17.90;54.20;;;;;;5075524;28;19924;-60
2021/03/17 00:44:00;;;;;;;;;;;17.90;54.20;;;;;;5074083;28;19939;-60
2021/03/17 00:46:26;;;;;;;;;;;17.80;54.20;;;;;;5075348;28;20276;-60
2021/03/17 00:48:51;;;;;;;;;;;17.80;54.20;;;;;;5074942;28;20280;-60
2021/03/17 00:51:17;;;;;;;;;;;17.80;54.30;;;;;;5074578;28;19924;-60
2021/03/17 00:53:42;;;;;;;;;;;17.80;54.30;;;;;;5074888;28;19951;-60
2021/03/17 00:56:08;;;;;;;;;;;17.80;54.30;;;;;;5074959;28;19924;-60
2021/03/17 00:58:34;;;;;;;;;;;17.80;54.40;;;;;;5074469;28;19924;-60
2021/03/17 01:00:59;;;;;;;;;;;17.80;54.40;;;;;;5074411;28;19924;-60
2021/03/17 01:03:25;;;;;;;;;;;17.70;54.40;;;;;;5075369;28;20371;-60
2021/03/17 01:05:50;;;;;;;;;;;17.70;54.50;;;;;;5073691;28;19924;-60
2021/03/17 01:08:16;;;;;;;;;;;17.70;54.50;;;;;;5075335;28;19925;-60
2021/03/17 01:10:45;;;;;;;;;;;17.70;54.50;;;;;;5074530;28;19925;-60
2021/03/17 01:13:10;;;;;;;;;;;17.70;54.50;;;;;;5073841;28;19925;-60
2021/03/17 01:15:36;;;;;;;;;;;17.60;54.50;;;;;;5074816;28;19970;-60
2021/03/17 01:18:02;;;;;;;;;;;17.60;54.60;;;;;;5074423;28;20307;-60
2021/03/17 01:20:28;;;;;;;;;;;17.60;54.60;;;;;;5073767;28;20379;-60
2021/03/17 01:22:53;;;;;;;;;;;17.60;54.60;;;;;;5073925;28;19932;-60
2021/03/17 01:25:26;;;;;;;;;;;17.60;54.70;;;;;;5074794;28;19929;-60
2021/03/17 01:27:51;;;;;;;;;;;17.50;54.70;;;;;;5073945;28;19925;-60
2021/03/17 01:30:17;;;;;;;;;;;17.50;54.70;;;;;;5074560;28;19936;-60
2021/03/17 01:32:43;;;;;;;;;;;17.50;54.70;;;;;;5073322;28;19943;-60
2021/03/17 01:35:12;;;;;;;;;;;17.50;54.70;;;;;;5074394;28;19925;-60
2021/03/17 01:37:37;;;;;;;;;;;17.50;54.80;;;;;;5074452;28;19929;-60
2021/03/17 01:40:04;;;;;;;;;;;17.50;54.80;;;;;;5073140;28;19928;-60
2021/03/17 01:42:29;;;;;;;;;;;17.50;54.90;;;;;;5074305;28;19924;-60
2021/03/17 01:44:55;;;;;;;;;;;17.40;54.80;;;;;;5073865;28;19924;-60
2021/03/17 01:47:20;;;;;;;;;;;17.40;54.80;;;;;;5073625;28;19930;-60
2021/03/17 01:49:46;;;;;;;;;;;17.40;54.90;;;;;;5073926;28;19924;-60
2021/03/17 01:52:12;;;;;;;;;;;17.40;55.60;;;;;;5073956;28;20363;-60
2021/03/17 01:54:37;;;;;;;;;;;17.40;54.90;;;;;;5073095;28;19925;-60
2021/03/17 01:57:03;;;;;;;;;;;17.40;54.90;;;;;;5073493;28;19928;-60
2021/03/17 01:59:29;;;;;;;;;;;17.40;54.90;;;;;;5074197;28;19924;-60
2021/03/17 02:01:54;;;;;;;;;;;17.40;55.00;;;;;;5072740;28;19925;-60
2021/03/17 02:04:20;;;;;;;;;;;17.30;54.90;;;;;;5056076;28;19920;-60
2021/03/17 02:06:46;;;;;;;;;;;17.30;54.90;;;;;;5073643;28;19940;-60
2021/03/17 02:09:11;;;;;;;;;;;17.30;55.00;;;;;;5072600;28;20367;-60
2021/03/17 02:11:42;;;;;;;;;;;17.30;55.00;;;;;;5073605;28;19924;-60
2021/03/17 02:14:20;;;;;;;;;;;17.30;55.00;;;;;;5056717;28;19948;-60
2021/03/17 02:16:46;;;;;;;;;;;17.30;55.00;;;;;;5054705;28;20277;-60
2021/03/17 02:19:11;;;;;;;;;;;17.30;55.00;;;;;;5073425;28;19932;-60
2021/03/17 02:21:37;;;;;;;;;;;17.20;55.00;;;;;;5073644;28;19924;-60
2021/03/17 02:24:17;;;;;;;;;;;17.20;55.00;;;;;;5071980;28;20374;-60
2021/03/17 02:26:49;;;;;;;;;;;17.20;55.00;;;;;;5073450;28;20007;-60
2021/03/17 02:29:33;;;;;;;;;;;17.20;55.10;;;;;;5072749;28;19924;-60
2021/03/17 02:32:04;;;;;;;;;;;17.20;55.00;;;;;;5072614;28;19973;-60
2021/03/17 02:34:33;;;;;;;;;;;17.20;55.10;;;;;;5073327;28;19970;-60
2021/03/17 02:36:59;;;;;;;;;;;17.20;55.10;;;;;;5087732;28;19950;-60
2021/03/17 02:39:34;;;;;;;;;;;17.10;55.10;;;;;;5088871;28;19983;-60
2021/03/17 02:42:06;;;;;;;;;;;17.10;55.10;;;;;;5072283;28;19929;-60
2021/03/17 02:44:31;;;;;;;;;;;17.10;55.20;;;;;;5072428;28;20363;-60
2021/03/17 02:46:59;;;;;;;;;;;17.10;55.20;;;;;;5088236;28;19924;-60
2021/03/17 02:49:26;;;;;;;;;;;17.10;55.20;;;;;;5088744;28;20019;-60
2021/03/17 02:51:55;;;;;;;;;;;17.10;55.20;;;;;;5087367;28;19970;-60
2021/03/17 02:54:21;;;;;;;;;;;17.10;55.20;;;;;;5072829;28;19925;-60
2021/03/17 02:56:56;;;;;;;;;;;17.00;55.10;;;;;;5072725;28;19925;-59
2021/03/17 02:59:22;;;;;;;;;;;17.10;55.20;;;;;;5088579;28;19931;-60
2021/03/17 03:01:51;;;;;;;;;;;17.00;55.10;;;;;;5072442;28;19925;-60
2021/03/17 03:04:17;;;;;;;;;;;17.10;55.10;;;;;;5087904;28;19978;-60
2021/03/17 03:06:43;;;;;;;;;;;17.10;55.00;;;;;;5088211;28;19929;-60
2021/03/17 03:09:09;;;;;;;;;;;17.10;55.00;;;;;;5072499;28;20409;-60
2021/03/17 03:11:35;;;;;;;;;;;17.10;54.90;;;;;;5087597;28;19928;-60
2021/03/17 03:14:00;;;;;;;;;;;17.10;55.00;;;;;;5072250;28;20354;-60
2021/03/17 03:16:26;;;;;;;;;;;17.10;54.90;;;;;;5087863;28;19924;-60
2021/03/17 03:18:52;;;;;;;;;;;17.10;54.80;;;;;;5071462;28;20023;-60
2021/03/17 03:21:18;;;;;;;;;;;17.20;54.90;;;;;;5088466;28;20011;-60
2021/03/17 03:23:44;;;;;;;;;;;17.20;54.80;;;;;;5072129;28;19954;-60
2021/03/17 03:26:10;;;;;;;;;;;17.20;54.80;;;;;;5087204;28;19940;-60
2021/03/17 03:28:35;;;;;;;;;;;17.20;54.70;;;;;;5088249;28;19955;-60
2021/03/17 03:31:01;;;;;;;;;;;17.20;54.60;;;;;;5071635;28;19924;-60
2021/03/17 03:33:27;;;;;;;;;;;17.30;54.60;;;;;;5071646;28;19932;-60
2021/03/17 03:35:52;;;;;;;;;;;17.30;54.60;;;;;;5072091;28;19991;-60
2021/03/17 03:38:18;;;;;;;;;;;17.30;54.50;;;;;;5072766;28;19931;-60
2021/03/17 03:40:43;;;;;;;;;;;17.30;54.60;;;;;;5071465;28;20342;-60
2021/03/17 03:43:10;;;;;;;;;;;17.30;54.50;;;;;;5072224;28;19929;-60
2021/03/17 03:45:35;;;;;;;;;;;17.30;54.80;;;;;;5072282;28;20425;-60
2021/03/17 03:48:04;;;;;;;;;;;17.30;54.50;;;;;;5071184;28;19924;-62
2021/03/17 03:50:34;;;;;;;;;;;17.30;54.50;;;;;;5072476;28;19924;-61
2021/03/17 03:53:09;;;;;;;;;;;17.30;54.40;;;;;;5073110;28;19925;-61
2021/03/17 03:55:41;;;;;;;;;;;17.30;54.40;;;;;;5076282;28;20391;-61
2021/03/17 03:58:07;;;;;;;;;;;17.30;54.40;;;;;;5058142;28;19947;-61
2021/03/17 04:00:33;;;;;;;;;;;17.30;54.30;;;;;;5075687;28;19970;-61
2021/03/17 04:02:59;;;;;;;;;;;17.30;54.30;;;;;;5075817;28;20298;-61
2021/03/17 04:05:25;;;;;;;;;;;17.30;54.30;;;;;;5076347;28;19925;-61
2021/03/17 04:07:52;;;;;;;;;;;17.30;54.30;;;;;;5056926;28;19933;-61
2021/03/17 04:10:18;;;;;;;;;;;17.30;54.30;;;;;;5076100;28;19985;-61
2021/03/17 04:12:43;;;;;;;;;;;17.30;54.20;;;;;;5057701;28;19924;-61
2021/03/17 04:15:10;;;;;;;;;;;17.30;54.10;;;;;;5075058;28;20180;-61
2021/03/17 04:17:53;;;;;;;;;;;17.30;54.20;;;;;;5076105;28;19977;-61
2021/03/17 04:20:20;;;;;;;;;;;17.30;54.20;;;;;;5075995;28;19925;-61
2021/03/17 04:22:46;;;;;;;;;;;17.40;54.20;;;;;;5056632;28;19936;-61
2021/03/17 04:25:13;;;;;;;;;;;17.30;54.20;;;;;;5075355;28;20424;-61
2021/03/17 04:27:39;;;;;;;;;;;17.30;54.20;;;;;;5091599;28;19925;-61
2021/03/17 04:30:05;;;;;;;;;;;17.30;54.10;;;;;;5090378;28;20053;-61
2021/03/17 04:32:30;;;;;;;;;;;17.30;54.10;;;;;;5075555;28;19925;-61
2021/03/17 04:34:56;;;;;;;;;;;17.40;54.10;;;;;;5090666;28;19924;-61
2021/03/17 04:37:21;;;;;;;;;;;17.30;54.10;;;;;;5074784;28;19925;-61
2021/03/17 04:39:48;;;;;;;;;;;17.40;54.20;;;;;;5090887;28;20292;-61
2021/03/17 04:42:13;;;;;;;;;;;17.30;54.10;;;;;;5075267;28;20327;-61
2021/03/17 04:44:39;;;;;;;;;;;17.30;54.00;;;;;;5074441;28;20398;-61
2021/03/17 04:47:05;;;;;;;;;;;17.30;54.00;;;;;;5090904;28;19925;-61
2021/03/17 04:49:31;;;;;;;;;;;17.40;54.10;;;;;;5090589;28;20338;-61
2021/03/17 04:51:56;;;;;;;;;;;17.40;54.10;;;;;;5074864;28;19963;-61
2021/03/17 04:54:22;;;;;;;;;;;17.40;54.00;;;;;;5074955;28;19928;-61
2021/03/17 04:56:48;;;;;;;;;;;17.30;54.10;;;;;;5074298;28;19952;-61
2021/03/17 04:59:18;;;;;;;;;;;17.40;54.20;;;;;;5090589;28;20326;-61
2021/03/17 05:01:43;;;;;;;;;;;17.40;54.10;;;;;;5074874;28;19924;-61
2021/03/17 05:04:09;;;;;;;;;;;17.40;54.00;;;;;;5073564;28;19982;-61
2021/03/17 05:06:35;;;;;;;;;;;17.40;54.00;;;;;;5090737;28;19925;-61
2021/03/17 05:09:00;;;;;;;;;;;17.40;54.10;;;;;;5090014;28;19924;-61
2021/03/17 05:11:28;;;;;;;;;;;17.40;54.00;;;;;;5089670;28;19939;-61
2021/03/17 05:13:54;;;;;;;;;;;17.40;54.00;;;;;;5090259;28;19924;-61
2021/03/17 05:16:19;;;;;;;;;;;17.40;53.90;;;;;;5090771;28;20329;-61
2021/03/17 05:18:45;;;;;;;;;;;17.40;53.80;;;;;;5073804;28;19932;-61
2021/03/17 05:21:10;;;;;;;;;;;17.40;53.80;;;;;;5090196;28;20041;-61
2021/03/17 05:23:37;;;;;;;;;;;17.30;53.80;;;;;;5074403;28;20291;-61
2021/03/17 05:26:03;;;;;;;;;;;17.30;53.80;;;;;;5073437;28;20265;-61
2021/03/17 05:28:28;;;;;;;;;;;17.30;53.90;;;;;;5074156;28;20376;-59
2021/03/17 05:30:54;;;;;;;;;;;17.30;53.90;;;;;;5089163;28;19931;-59
2021/03/17 05:33:26;;;;;;;;;;;17.30;53.90;;;;;;5073826;28;20011;-59
2021/03/17 05:35:52;;;;;;;;;;;17.30;54.00;;;;;;5089480;28;19925;-59
2021/03/17 05:38:17;;;;;;;;;;;17.40;54.30;;;;;;5090367;28;19931;-59
2021/03/17 05:40:43;;;;;;;;;;;17.50;54.30;;;;;;5073482;28;20382;-59
2021/03/17 05:43:09;;;;;;;;;;;17.60;54.20;;;;;;5073507;28;20284;-60
2021/03/17 05:45:35;;;;;;;;;;;17.70;54.00;;;;;;5074391;28;19925;-63
2021/03/17 05:48:01;;;;;;;;;;;17.80;54.00;;;;;;5073219;28;19925;-63
2021/03/17 05:50:27;;;;;;;;;;;18.00;53.90;;;;;;5073565;28;19946;-61
2021/03/17 05:52:58;;;;;;;;;;;18.10;53.80;;;;;;5072444;28;19928;-61
2021/03/17 05:55:24;;;;;;;;;;;18.30;53.60;;;;;;5073994;28;19924;-62
2021/03/17 05:57:49;;;;;;;;;;;18.40;53.50;;;;;;5073523;28;19931;-61
2021/03/17 06:00:19;;;;;;;;;;;18.50;53.30;;;;;;5055357;28;19955;-61
2021/03/17 06:02:44;;;;;;;;;;;18.60;53.40;;;;;;5073544;28;20397;-62
2021/03/17 06:05:11;;;;;;;;;;;18.70;53.50;;;;;;5055747;28;20011;-62
2021/03/17 06:07:45;;;;;;;;;;;18.70;53.60;;;;;;5073179;28;20012;-61
2021/03/17 06:10:11;;;;;;;;;;;18.70;53.70;;;;;;5073525;28;19924;-60
2021/03/17 06:12:36;;;;;;;;;;;18.80;53.70;;;;;;5073508;28;19931;-61
2021/03/17 06:15:03;;;;;;;;;;;18.80;53.80;;;;;;5071425;28;19924;-60
2021/03/17 06:17:28;;;;;;;;;;;18.80;53.90;;;;;;5073632;28;19966;-60
2021/03/17 06:19:57;;;;;;;;;;;18.90;53.80;;;;;;5055342;28;20295;-60
2021/03/17 06:22:23;;;;;;;;;;;18.90;53.90;;;;;;5072845;28;19925;-60
2021/03/17 06:24:49;;;;;;;;;;;18.90;53.70;;;;;;5072725;28;19932;-60
2021/03/17 06:27:17;;;;;;;;;;;19.00;53.70;;;;;;5073544;28;19924;-62
2021/03/17 06:29:43;;;;;;;;;;;19.00;53.70;;;;;;5071932;28;20303;-63
2021/03/17 06:32:08;;;;;;;;;;;19.10;53.70;;;;;;5084970;28;19946;-63
2021/03/17 06:34:34;;;;;;;;;;;19.10;53.60;;;;;;5053284;28;20368;-61
2021/03/17 06:36:59;;;;;;;;;;;19.10;53.60;;;;;;5052107;28;19933;-61
